Time;durP1;ratioP1;P1;durP2;ratioP2;P2;SDS_P1;SDS_P2;PMS_P1;PMS_P2;Temp;Humidity;BMP_temperature;BMP_pressure;BME280_temperature;BME280_humidity;BME280_pressure;Samples;Min_cycle;Max_cycle;Signal;HPM_P1;HPM_P2
2022/04/05 00:01:45;;;;;;;2.08;0.00;;;;;;;;;;4211687;28;20040;-41
2022/04/05 00:03:46;;;;;;;0.20;0.00;;;;;;;;;;4211639;28;20617;-42
2022/04/05 00:05:47;;;;;;;0.13;0.10;;;;;;;;;;4211621;28;20097;-41
2022/04/05 00:07:48;;;;;;;0.28;0.00;;;;;;;;;;4210454;28;20052;-41
2022/04/05 00:09:49;;;;;;;0.17;0.00;;;;;;;;;;4211644;28;20055;-41
2022/04/05 00:11:50;;;;;;;0.00;0.00;;;;;;;;;;4211555;28;20048;-42
2022/04/05 00:13:51;;;;;;;0.00;0.00;;;;;;;;;;4211260;28;20117;-41
2022/04/05 00:15:53;;;;;;;0.28;0.00;;;;;;;;;;4211666;28;20044;-43
2022/04/05 00:17:54;;;;;;;0.13;0.00;;;;;;;;;;4211663;28;20165;-43
2022/04/05 00:19:55;;;;;;;0.10;0.10;;;;;;;;;;4211365;28;20040;-41
2022/04/05 00:21:56;;;;;;;0.00;0.00;;;;;;;;;;4211467;28;20044;-41
2022/04/05 00:23:57;;;;;;;0.00;0.00;;;;;;;;;;4210011;28;20059;-42
2022/04/05 00:25:58;;;;;;;0.08;0.00;;;;;;;;;;4210958;28;20463;-42
2022/04/05 00:27:59;;;;;;;0.08;0.03;;;;;;;;;;4211451;28;20248;-42
2022/04/05 00:30:00;;;;;;;0.15;0.10;;;;;;;;;;4209958;28;20047;-41
2022/04/05 00:32:01;;;;;;;0.10;0.00;;;;;;;;;;4211952;28;20352;-40
2022/04/05 00:34:03;;;;;;;0.00;0.00;;;;;;;;;;4211444;28;20044;-42
2022/04/05 00:36:03;;;;;;;0.00;0.00;;;;;;;;;;4211445;28;20189;-42
2022/04/05 00:38:05;;;;;;;0.00;0.00;;;;;;;;;;4211689;28;20055;-41
2022/04/05 00:40:07;;;;;;;0.00;0.00;;;;;;;;;;4211022;28;20432;-41
2022/04/05 00:42:10;;;;;;;0.00;0.00;;;;;;;;;;4211576;28;20051;-41
2022/04/05 00:44:11;;;;;;;0.00;0.00;;;;;;;;;;4210166;28;20082;-42
2022/04/05 00:46:12;;;;;;;0.05;0.00;;;;;;;;;;4211347;28;20056;-42
2022/04/05 00:48:20;;;;;;;0.00;0.00;;;;;;;;;;4209940;28;20044;-41
2022/04/05 00:50:22;;;;;;;0.00;0.00;;;;;;;;;;4211517;28;20048;-42
2022/04/05 00:52:23;;;;;;;0.10;0.00;;;;;;;;;;4211263;28;20048;-43
2022/04/05 00:54:25;;;;;;;0.00;0.00;;;;;;;;;;4211095;28;20087;-43
2022/04/05 00:56:26;;;;;;;0.00;0.00;;;;;;;;;;4211051;28;20113;-42
2022/04/05 00:58:28;;;;;;;0.00;0.00;;;;;;;;;;4211441;28;20051;-42
2022/04/05 01:00:29;;;;;;;0.00;0.00;;;;;;;;;;4211710;28;20048;-42
2022/04/05 01:02:36;;;;;;;0.00;0.00;;;;;;;;;;4210042;28;20052;-42
2022/04/05 01:04:39;;;;;;;0.00;0.00;;;;;;;;;;4214399;28;20056;-41
2022/04/05 01:06:43;;;;;;;0.00;0.00;;;;;;;;;;4214370;28;20635;-41
2022/04/05 01:08:44;;;;;;;0.00;0.00;;;;;;;;;;4214373;28;20101;-41
2022/04/05 01:10:45;;;;;;;0.00;0.00;;;;;;;;;;4213874;28;20055;-42
2022/04/05 01:12:48;;;;;;;0.00;0.00;;;;;;;;;;4214235;28;20056;-42
2022/04/05 01:14:50;;;;;;;0.00;0.00;;;;;;;;;;4214087;28;20044;-42
2022/04/05 01:16:51;;;;;;;0.00;0.00;;;;;;;;;;4214597;28;20048;-43
2022/04/05 01:18:51;;;;;;;0.10;0.00;;;;;;;;;;4214519;28;20135;-42
2022/04/05 01:20:52;;;;;;;0.10;0.00;;;;;;;;;;4195783;28;20076;-42
2022/04/05 01:22:54;;;;;;;0.65;0.00;;;;;;;;;;4214362;28;20065;-42
2022/04/05 01:24:57;;;;;;;0.00;0.00;;;;;;;;;;4213499;28;20044;-42
2022/04/05 01:27:01;;;;;;;0.00;0.00;;;;;;;;;;4213801;28;20044;-42
2022/04/05 01:29:02;;;;;;;0.00;0.00;;;;;;;;;;4214423;28;20048;-42
2022/04/05 01:31:03;;;;;;;0.10;0.00;;;;;;;;;;4214250;28;20103;-41
2022/04/05 01:33:04;;;;;;;0.00;0.00;;;;;;;;;;4214172;28;20548;-42
2022/04/05 01:35:05;;;;;;;0.10;0.00;;;;;;;;;;4214087;28;20048;-41
2022/04/05 01:37:08;;;;;;;0.10;0.00;;;;;;;;;;4214265;28;20052;-42
2022/04/05 01:39:10;;;;;;;0.00;0.00;;;;;;;;;;4212508;28;20048;-42
2022/04/05 01:41:11;;;;;;;0.00;0.00;;;;;;;;;;4213474;28;20255;-42
2022/04/05 01:43:13;;;;;;;0.00;0.00;;;;;;;;;;4213958;28;20044;-41
2022/04/05 01:45:14;;;;;;;0.10;0.08;;;;;;;;;;4213691;28;20380;-42
2022/04/05 01:47:16;;;;;;;0.20;0.00;;;;;;;;;;4213673;28;20406;-42
2022/04/05 01:49:17;;;;;;;0.00;0.00;;;;;;;;;;4213798;28;20048;-41
2022/04/05 01:51:18;;;;;;;0.00;0.00;;;;;;;;;;4213549;28;20048;-41
2022/04/05 01:53:19;;;;;;;0.00;0.00;;;;;;;;;;4213706;28;20051;-41
2022/04/05 01:55:20;;;;;;;0.75;0.00;;;;;;;;;;4212995;28;20144;-42
2022/04/05 01:57:21;;;;;;;0.30;0.00;;;;;;;;;;4213996;28;20047;-41
2022/04/05 01:59:23;;;;;;;0.00;0.00;;;;;;;;;;4213796;28;20093;-41
2022/04/05 02:01:24;;;;;;;0.00;0.00;;;;;;;;;;4213379;28;20442;-42
2022/04/05 02:03:25;;;;;;;0.28;0.10;;;;;;;;;;4213687;28;20099;-41
2022/04/05 02:05:26;;;;;;;0.00;0.00;;;;;;;;;;4213486;28;20092;-42
2022/04/05 02:07:28;;;;;;;0.00;0.00;;;;;;;;;;4213556;28;20134;-42
2022/04/05 02:09:30;;;;;;;0.00;0.00;;;;;;;;;;4212129;28;20070;-42
2022/04/05 02:11:32;;;;;;;0.00;0.00;;;;;;;;;;4211404;28;20048;-43
2022/04/05 02:13:39;;;;;;;0.00;0.00;;;;;;;;;;4211604;28;20086;-42
2022/04/05 02:15:40;;;;;;;0.00;0.00;;;;;;;;;;4195158;28;20484;-42
2022/04/05 02:17:43;;;;;;;0.10;0.00;;;;;;;;;;4212072;28;20053;-34
2022/04/05 02:19:46;;;;;;;0.10;0.10;;;;;;;;;;4213387;28;20040;-34
2022/04/05 02:21:50;;;;;;;0.00;0.00;;;;;;;;;;4211983;28;20326;-34
2022/04/05 02:23:53;;;;;;;0.05;0.05;;;;;;;;;;4212086;28;20047;-34
2022/04/05 02:26:00;;;;;;;0.10;0.00;;;;;;;;;;4211498;28;20089;-34
2022/04/05 02:28:06;;;;;;;0.00;0.00;;;;;;;;;;4212062;28;20048;-34
2022/04/05 02:30:15;;;;;;;0.00;0.00;;;;;;;;;;4211801;28;20451;-34
2022/04/05 02:32:18;;;;;;;0.08;0.00;;;;;;;;;;4211937;28;20449;-34
2022/04/05 02:34:20;;;;;;;0.00;0.00;;;;;;;;;;4211660;28;20510;-35
2022/04/05 02:36:28;;;;;;;0.00;0.00;;;;;;;;;;4211681;28;20044;-34
2022/04/05 02:38:31;;;;;;;0.00;0.00;;;;;;;;;;4211628;28;20544;-34
2022/04/05 02:40:33;;;;;;;0.00;0.00;;;;;;;;;;4211316;28;20048;-34
2022/04/05 02:42:35;;;;;;;0.03;0.00;;;;;;;;;;4211753;28;20090;-34
2022/04/05 02:44:38;;;;;;;0.00;0.00;;;;;;;;;;4213155;28;20048;-34
2022/04/05 02:46:39;;;;;;;0.00;0.00;;;;;;;;;;4211560;28;20052;-34
2022/04/05 02:48:46;;;;;;;0.15;0.00;;;;;;;;;;4211584;28;20117;-34
2022/04/05 02:50:53;;;;;;;0.20;0.10;;;;;;;;;;4211309;28;20568;-34
2022/04/05 02:52:55;;;;;;;0.00;0.00;;;;;;;;;;4211554;28;20074;-34
2022/04/05 02:54:56;;;;;;;0.00;0.00;;;;;;;;;;4210644;28;20047;-34
2022/04/05 02:57:00;;;;;;;0.00;0.00;;;;;;;;;;4211399;28;20083;-34
2022/04/05 02:59:01;;;;;;;0.00;0.00;;;;;;;;;;4211371;28;20047;-34
2022/04/05 03:01:03;;;;;;;0.00;0.00;;;;;;;;;;4211113;28;20073;-34
2022/04/05 03:03:04;;;;;;;0.20;0.00;;;;;;;;;;4211421;28;20044;-34
2022/04/05 03:05:06;;;;;;;0.05;0.03;;;;;;;;;;4212502;28;20044;-34
2022/04/05 03:07:09;;;;;;;0.00;0.00;;;;;;;;;;4211194;28;20315;-34
2022/04/05 03:09:11;;;;;;;0.00;0.00;;;;;;;;;;4194338;28;20487;-34
2022/04/05 03:11:13;;;;;;;0.00;0.00;;;;;;;;;;4210585;28;20484;-34
2022/04/05 03:13:14;;;;;;;0.08;0.00;;;;;;;;;;4212123;28;20052;-34
2022/04/05 03:15:17;;;;;;;0.00;0.00;;;;;;;;;;4210879;28;20105;-34
2022/04/05 03:17:18;;;;;;;0.00;0.00;;;;;;;;;;4210999;28;20048;-34
2022/04/05 03:19:20;;;;;;;0.35;0.00;;;;;;;;;;4210974;28;20051;-34
2022/04/05 03:21:24;;;;;;;0.00;0.00;;;;;;;;;;4210785;28;20040;-34
2022/04/05 03:23:26;;;;;;;0.00;0.00;;;;;;;;;;4212196;28;20048;-34
2022/04/05 03:25:27;;;;;;;0.00;0.00;;;;;;;;;;4211565;28;20052;-33
2022/04/05 03:27:29;;;;;;;0.00;0.00;;;;;;;;;;4210842;28;20357;-34
2022/04/05 03:29:30;;;;;;;0.00;0.00;;;;;;;;;;4210816;28;20128;-34
2022/04/05 03:31:31;;;;;;;0.00;0.00;;;;;;;;;;4210911;28;20579;-34
2022/04/05 03:33:33;;;;;;;0.00;0.00;;;;;;;;;;4210793;28;20089;-34
2022/04/05 03:35:36;;;;;;;0.00;0.00;;;;;;;;;;4210891;28;20059;-34
2022/04/05 03:37:38;;;;;;;0.00;0.00;;;;;;;;;;4210664;28;20048;-34
2022/04/05 03:39:39;;;;;;;0.00;0.00;;;;;;;;;;4210225;28;20093;-34
2022/04/05 03:41:41;;;;;;;0.00;0.00;;;;;;;;;;4210804;28;20044;-34
2022/04/05 03:43:42;;;;;;;0.10;0.00;;;;;;;;;;4210709;28;20109;-34
2022/04/05 03:45:47;;;;;;;0.10;0.10;;;;;;;;;;4210593;28;20537;-34
2022/04/05 03:47:48;;;;;;;0.00;0.00;;;;;;;;;;4210654;28;20101;-34
2022/04/05 03:49:50;;;;;;;0.00;0.00;;;;;;;;;;4210654;28;20249;-35
2022/04/05 03:51:52;;;;;;;0.00;0.00;;;;;;;;;;4210520;28;20161;-34
2022/04/05 03:53:54;;;;;;;0.10;0.00;;;;;;;;;;4210499;28;20093;-34
2022/04/05 03:55:56;;;;;;;0.00;0.00;;;;;;;;;;4210169;28;20056;-34
2022/04/05 03:57:57;;;;;;;0.08;0.08;;;;;;;;;;4211869;28;20090;-34
2022/04/05 04:00:01;;;;;;;0.03;0.03;;;;;;;;;;4210285;28;20510;-34
2022/04/05 04:02:05;;;;;;;0.05;0.05;;;;;;;;;;4210873;28;20048;-34
2022/04/05 04:04:06;;;;;;;0.10;0.00;;;;;;;;;;4210652;28;20050;-34
2022/04/05 04:06:08;;;;;;;0.15;0.10;;;;;;;;;;4211734;28;20044;-34
2022/04/05 04:08:09;;;;;;;0.00;0.00;;;;;;;;;;4210440;28;20063;-34
2022/04/05 04:10:11;;;;;;;0.38;0.00;;;;;;;;;;4209768;28;20117;-34
2022/04/05 04:12:13;;;;;;;0.40;0.00;;;;;;;;;;4210566;28;20047;-34
2022/04/05 04:14:15;;;;;;;0.00;0.00;;;;;;;;;;4210542;28;20052;-34
2022/04/05 04:16:16;;;;;;;0.00;0.00;;;;;;;;;;4210462;28;20082;-34
2022/04/05 04:18:19;;;;;;;0.00;0.00;;;;;;;;;;4211932;28;20101;-34
2022/04/05 04:20:22;;;;;;;0.03;0.00;;;;;;;;;;4210120;28;20047;-34
2022/04/05 04:22:26;;;;;;;0.20;0.00;;;;;;;;;;4210531;28;20097;-34
2022/04/05 04:24:28;;;;;;;0.00;0.00;;;;;;;;;;4210381;28;20133;-34
2022/04/05 04:26:29;;;;;;;0.10;0.10;;;;;;;;;;4211098;28;20075;-34
2022/04/05 04:28:30;;;;;;;0.00;0.00;;;;;;;;;;4211667;28;20087;-34
2022/04/05 04:30:35;;;;;;;0.20;0.00;;;;;;;;;;4211406;28;20193;-34
2022/04/05 04:32:36;;;;;;;0.13;0.00;;;;;;;;;;4211900;28;20052;-34
2022/04/05 04:34:36;;;;;;;0.00;0.00;;;;;;;;;;4211359;28;20139;-34
2022/04/05 04:36:39;;;;;;;0.20;0.00;;;;;;;;;;4211497;28;20194;-34
2022/04/05 04:38:40;;;;;;;0.00;0.00;;;;;;;;;;4213285;28;20059;-34
2022/04/05 04:40:44;;;;;;;0.05;0.05;;;;;;;;;;4214233;28;20093;-34
2022/04/05 04:42:45;;;;;;;0.05;0.00;;;;;;;;;;4214975;28;20051;-34
2022/04/05 04:44:46;;;;;;;0.00;0.00;;;;;;;;;;4214638;28;20052;-34
2022/04/05 04:46:47;;;;;;;0.05;0.00;;;;;;;;;;4214809;28;20109;-34
2022/04/05 04:48:48;;;;;;;0.03;0.00;;;;;;;;;;4215036;28;20101;-34
2022/04/05 04:50:49;;;;;;;0.30;0.10;;;;;;;;;;4212931;28;20063;-34
2022/04/05 04:52:50;;;;;;;0.28;0.10;;;;;;;;;;4215017;28;20052;-35
2022/04/05 04:54:51;;;;;;;0.03;0.00;;;;;;;;;;4213740;28;20425;-34
2022/04/05 04:56:52;;;;;;;0.10;0.10;;;;;;;;;;4214935;28;20048;-35
2022/04/05 04:58:53;;;;;;;0.00;0.00;;;;;;;;;;4214708;28;20572;-34
2022/04/05 05:00:54;;;;;;;0.10;0.00;;;;;;;;;;4211627;28;20506;-35
2022/04/05 05:02:55;;;;;;;0.00;0.00;;;;;;;;;;4212475;28;20109;-34
2022/04/05 05:04:59;;;;;;;0.00;0.00;;;;;;;;;;4212257;28;20052;-34
2022/04/05 05:07:00;;;;;;;0.38;0.00;;;;;;;;;;4212459;28;20579;-34
2022/04/05 05:09:01;;;;;;;0.00;0.00;;;;;;;;;;4212292;28;20470;-35
2022/04/05 05:11:02;;;;;;;0.22;0.00;;;;;;;;;;4212073;28;20055;-34
2022/04/05 05:13:03;;;;;;;0.00;0.00;;;;;;;;;;4210275;28;20132;-34
2022/04/05 05:15:04;;;;;;;0.32;0.20;;;;;;;;;;4212243;28;20180;-34
2022/04/05 05:17:05;;;;;;;0.10;0.10;;;;;;;;;;4212389;28;20044;-35
2022/04/05 05:19:07;;;;;;;0.10;0.00;;;;;;;;;;4212236;28;20097;-35
2022/04/05 05:21:08;;;;;;;0.30;0.10;;;;;;;;;;4210640;28;20477;-35
2022/04/05 05:23:10;;;;;;;0.10;0.10;;;;;;;;;;4212092;28;20044;-34
2022/04/05 05:25:11;;;;;;;0.20;0.00;;;;;;;;;;4211612;28;20044;-34
2022/04/05 05:27:15;;;;;;;0.63;0.10;;;;;;;;;;4212295;28;20109;-34
2022/04/05 05:29:16;;;;;;;0.10;0.10;;;;;;;;;;4210922;28;20133;-35
2022/04/05 05:31:17;;;;;;;0.05;0.00;;;;;;;;;;4211910;28;20056;-34
2022/04/05 05:33:18;;;;;;;0.00;0.00;;;;;;;;;;4211824;28;20093;-34
2022/04/05 05:35:20;;;;;;;0.00;0.00;;;;;;;;;;4212389;28;20055;-34
2022/04/05 05:37:21;;;;;;;0.95;0.10;;;;;;;;;;4210022;28;20059;-34
2022/04/05 05:39:22;;;;;;;0.30;0.10;;;;;;;;;;4211894;28;20109;-34
2022/04/05 05:41:23;;;;;;;0.10;0.00;;;;;;;;;;4211516;28;20052;-34
2022/04/05 05:43:24;;;;;;;0.13;0.08;;;;;;;;;;4211726;28;20094;-34
2022/04/05 05:45:25;;;;;;;0.85;0.10;;;;;;;;;;4210379;28;20138;-34
2022/04/05 05:47:27;;;;;;;0.30;0.10;;;;;;;;;;4211772;28;20048;-34
2022/04/05 05:49:28;;;;;;;0.20;0.13;;;;;;;;;;4210967;28;20067;-34
2022/04/05 05:51:29;;;;;;;0.20;0.20;;;;;;;;;;4211737;28;20070;-34
2022/04/05 05:53:30;;;;;;;0.20;0.00;;;;;;;;;;4211597;28;20051;-34
2022/04/05 05:55:31;;;;;;;0.10;0.10;;;;;;;;;;4210244;28;20052;-34
2022/04/05 05:57:32;;;;;;;1.40;0.00;;;;;;;;;;4210937;28;20047;-34
2022/04/05 05:59:33;;;;;;;0.30;0.10;;;;;;;;;;4195806;28;20468;-34
2022/04/05 06:01:34;;;;;;;0.20;0.10;;;;;;;;;;4195693;28;20051;-34
2022/04/05 06:03:35;;;;;;;0.40;0.00;;;;;;;;;;4200072;28;20052;-34
2022/04/05 06:05:36;;;;;;;0.10;0.10;;;;;;;;;;4209746;28;20051;-34
2022/04/05 06:07:37;;;;;;;0.28;0.20;;;;;;;;;;4196499;28;20188;-34
2022/04/05 06:09:38;;;;;;;0.10;0.10;;;;;;;;;;4207830;28;20052;-34
2022/04/05 06:11:39;;;;;;;0.20;0.10;;;;;;;;;;4199991;28;20052;-34
2022/04/05 06:13:40;;;;;;;0.10;0.00;;;;;;;;;;4211107;28;20075;-34
2022/04/05 06:15:41;;;;;;;0.20;0.20;;;;;;;;;;4207220;28;20063;-33
2022/04/05 06:17:43;;;;;;;0.60;0.10;;;;;;;;;;4199825;28;20079;-34
2022/04/05 06:19:45;;;;;;;0.10;0.08;;;;;;;;;;4181051;28;20044;-34
2022/04/05 06:21:47;;;;;;;0.00;0.00;;;;;;;;;;4199291;28;20772;-34
2022/04/05 06:23:47;;;;;;;2.25;0.20;;;;;;;;;;4204840;28;20052;-35
2022/04/05 06:25:49;;;;;;;0.17;0.10;;;;;;;;;;4200750;28;20835;-35
2022/04/05 06:27:50;;;;;;;0.10;0.10;;;;;;;;;;4207104;28;20094;-35
2022/04/05 06:29:50;;;;;;;0.38;0.10;;;;;;;;;;4205899;28;20530;-35
2022/04/05 06:31:51;;;;;;;0.38;0.17;;;;;;;;;;4205043;28;20143;-34
2022/04/05 06:33:53;;;;;;;0.08;0.08;;;;;;;;;;4207628;28;20493;-34
2022/04/05 06:35:58;;;;;;;0.05;0.05;;;;;;;;;;4207519;28;20137;-34
2022/04/05 06:37:59;;;;;;;1.55;0.10;;;;;;;;;;4206692;28;20311;-34
2022/04/05 06:40:00;;;;;;;0.52;0.10;;;;;;;;;;4199279;28;20044;-35
2022/04/05 06:42:01;;;;;;;1.08;0.10;;;;;;;;;;4188701;28;20123;-34
2022/04/05 06:44:02;;;;;;;0.32;0.10;;;;;;;;;;4199949;28;20077;-34
2022/04/05 06:46:03;;;;;;;0.10;0.05;;;;;;;;;;4204897;28;20574;-35
2022/04/05 06:48:06;;;;;;;0.25;0.20;;;;;;;;;;4203745;28;20044;-36
2022/04/05 06:50:08;;;;;;;0.10;0.10;;;;;;;;;;4204947;28;20116;-35
2022/04/05 06:52:09;;;;;;;0.20;0.10;;;;;;;;;;4205986;28;20288;-33
2022/04/05 06:54:10;;;;;;;0.10;0.10;;;;;;;;;;4203237;28;20044;-34
2022/04/05 06:56:10;;;;;;;0.20;0.20;;;;;;;;;;4191662;28;20056;-35
2022/04/05 06:58:11;;;;;;;0.10;0.10;;;;;;;;;;4197363;28;20558;-35
2022/04/05 07:00:14;;;;;;;0.40;0.10;;;;;;;;;;4190337;28;20036;-34
2022/04/05 07:02:15;;;;;;;0.40;0.10;;;;;;;;;;4196553;28;21457;-34
2022/04/05 07:04:16;;;;;;;0.10;0.10;;;;;;;;;;4196878;28;20125;-34
2022/04/05 07:06:17;;;;;;;0.32;0.10;;;;;;;;;;4195265;28;20535;-34
2022/04/05 07:08:18;;;;;;;0.57;0.10;;;;;;;;;;4198210;28;20143;-34
2022/04/05 07:10:19;;;;;;;0.93;0.60;;;;;;;;;;4194155;28;20056;-34
2022/04/05 07:12:21;;;;;;;2.67;0.10;;;;;;;;;;4198778;28;20185;-34
2022/04/05 07:14:22;;;;;;;0.20;0.17;;;;;;;;;;4202577;28;20048;-33
2022/04/05 07:16:23;;;;;;;0.15;0.15;;;;;;;;;;4192454;28;20052;-34
2022/04/05 07:18:24;;;;;;;2.45;0.10;;;;;;;;;;4194837;28;20044;-34
2022/04/05 07:20:25;;;;;;;0.35;0.13;;;;;;;;;;4200009;28;20052;-35
2022/04/05 07:22:26;;;;;;;0.13;0.13;;;;;;;;;;4194975;28;20200;-35
2022/04/05 07:24:27;;;;;;;0.00;0.00;;;;;;;;;;4198944;28;20048;-36
2022/04/05 07:26:28;;;;;;;0.63;0.10;;;;;;;;;;4190093;28;20063;-35
2022/04/05 07:28:29;;;;;;;0.10;0.10;;;;;;;;;;4195798;28;20505;-35
2022/04/05 07:30:30;;;;;;;0.50;0.13;;;;;;;;;;4200612;28;20052;-35
2022/04/05 07:32:36;;;;;;;1.77;0.20;;;;;;;;;;4198937;28;20090;-35
2022/04/05 07:34:37;;;;;;;0.43;0.10;;;;;;;;;;4196727;28;20048;-35
2022/04/05 07:36:38;;;;;;;0.82;0.20;;;;;;;;;;4197100;28;20142;-35
2022/04/05 07:38:39;;;;;;;0.45;0.20;;;;;;;;;;4194001;28;20504;-35
2022/04/05 07:40:49;;;;;;;0.82;0.10;;;;;;;;;;4197609;28;20052;-35
2022/04/05 07:42:50;;;;;;;2.70;0.28;;;;;;;;;;4199670;28;20044;-35
2022/04/05 07:44:51;;;;;;;2.17;0.20;;;;;;;;;;4200954;28;20617;-35
2022/04/05 07:46:52;;;;;;;1.85;0.10;;;;;;;;;;4196267;28;20479;-35
2022/04/05 07:48:54;;;;;;;0.57;0.10;;;;;;;;;;4198406;28;20420;-35
2022/04/05 07:50:55;;;;;;;0.10;0.10;;;;;;;;;;4190533;28;20075;-34
2022/04/05 07:52:56;;;;;;;2.13;0.30;;;;;;;;;;4200719;28;20400;-36
2022/04/05 07:54:57;;;;;;;2.30;0.20;;;;;;;;;;4199829;28;20056;-34
2022/04/05 07:57:00;;;;;;;0.68;0.10;;;;;;;;;;4194940;28;20055;-35
2022/04/05 07:59:02;;;;;;;0.95;0.10;;;;;;;;;;4195599;28;20113;-34
2022/04/05 08:01:03;;;;;;;0.52;0.10;;;;;;;;;;4191020;28;20462;-35
2022/04/05 08:03:05;;;;;;;0.30;0.10;;;;;;;;;;4189287;28;20143;-36
2022/04/05 08:05:06;;;;;;;1.40;0.10;;;;;;;;;;4195047;28;20067;-34
2022/04/05 08:07:07;;;;;;;0.47;0.20;;;;;;;;;;4193356;28;20056;-34
2022/04/05 08:09:08;;;;;;;0.55;0.10;;;;;;;;;;4195179;28;20058;-35
2022/04/05 08:11:09;;;;;;;0.10;0.10;;;;;;;;;;4195081;28;20067;-35
2022/04/05 08:13:10;;;;;;;0.57;0.13;;;;;;;;;;4183261;28;20056;-35
2022/04/05 08:15:12;;;;;;;0.65;0.30;;;;;;;;;;4181292;28;20601;-35
2022/04/05 08:17:13;;;;;;;2.45;0.10;;;;;;;;;;4184552;28;20674;-35
2022/04/05 08:19:14;;;;;;;1.13;0.10;;;;;;;;;;4187161;28;20082;-35
2022/04/05 08:21:17;;;;;;;0.43;0.30;;;;;;;;;;4186839;28;20048;-35
2022/04/05 08:23:18;;;;;;;0.68;0.20;;;;;;;;;;4186777;28;20122;-35
2022/04/05 08:25:19;;;;;;;1.67;0.20;;;;;;;;;;4184329;28;20121;-34
2022/04/05 08:27:20;;;;;;;3.60;0.40;;;;;;;;;;4185994;28;20142;-35
2022/04/05 08:29:21;;;;;;;0.25;0.10;;;;;;;;;;4186072;28;20048;-35
2022/04/05 08:31:22;;;;;;;4.28;0.38;;;;;;;;;;4197531;28;20392;-35
2022/04/05 08:33:23;;;;;;;4.45;0.30;;;;;;;;;;4197413;28;20101;-34
2022/04/05 08:35:24;;;;;;;6.03;0.40;;;;;;;;;;4183053;28;20478;-33
2022/04/05 08:37:25;;;;;;;3.22;0.30;;;;;;;;;;4187588;28;20141;-33
2022/04/05 08:39:28;;;;;;;3.15;0.40;;;;;;;;;;4182474;28;20084;-33
2022/04/05 08:41:32;;;;;;;1.75;0.75;;;;;;;;;;4187015;28;20408;-34
2022/04/05 08:43:34;;;;;;;6.40;0.38;;;;;;;;;;4184043;28;20051;-34
2022/04/05 08:45:35;;;;;;;3.65;0.35;;;;;;;;;;4180816;28;20147;-34
2022/04/05 08:47:41;;;;;;;5.20;0.55;;;;;;;;;;4184272;28;20052;-34
2022/04/05 08:49:43;;;;;;;4.88;0.30;;;;;;;;;;4182162;28;20446;-33
2022/04/05 08:51:44;;;;;;;1.45;0.25;;;;;;;;;;4185840;28;20048;-33
2022/04/05 08:53:45;;;;;;;2.30;0.30;;;;;;;;;;4187790;28;20079;-33
2022/04/05 08:55:46;;;;;;;0.20;0.10;;;;;;;;;;4185414;28;20056;-33
2022/04/05 08:57:47;;;;;;;2.45;0.30;;;;;;;;;;4181047;28;20324;-33
2022/04/05 08:59:49;;;;;;;2.70;1.05;;;;;;;;;;4182283;28;20051;-33
2022/04/05 09:01:52;;;;;;;0.30;0.20;;;;;;;;;;4190255;28;20593;-33
2022/04/05 09:03:53;;;;;;;2.92;0.30;;;;;;;;;;4189308;28;20120;-32
2022/04/05 09:05:54;;;;;;;6.75;0.30;;;;;;;;;;4179223;28;20760;-33
2022/04/05 09:08:10;;;;;;;5.40;0.88;;;;;;;;;;4188132;28;20051;-34
2022/04/05 09:10:13;;;;;;;2.33;0.68;;;;;;;;;;4182276;28;20574;-34
2022/04/05 09:12:17;;;;;;;10.23;0.98;;;;;;;;;;4179430;28;20101;-33
2022/04/05 09:14:23;;;;;;;6.82;0.70;;;;;;;;;;4177308;28;20750;-35
2022/04/05 09:16:34;;;;;;;4.70;1.02;;;;;;;;;;4179909;28;20086;-34
2022/04/05 09:18:39;;;;;;;4.38;0.60;;;;;;;;;;4185688;28;20052;-34
2022/04/05 09:20:44;;;;;;;6.70;0.50;;;;;;;;;;4188088;28;20056;-33
2022/04/05 09:22:46;;;;;;;2.83;1.00;;;;;;;;;;4189768;28;20059;-33
2022/04/05 09:24:50;;;;;;;1.80;0.50;;;;;;;;;;4195784;28;20355;-34
2022/04/05 09:26:51;;;;;;;7.55;1.13;;;;;;;;;;4197716;28;20372;-33
2022/04/05 09:28:52;;;;;;;4.88;0.68;;;;;;;;;;4197548;28;20220;-33
2022/04/05 09:30:56;;;;;;;4.70;0.65;;;;;;;;;;4193788;28;20147;-33
2022/04/05 09:32:58;;;;;;;6.53;0.60;;;;;;;;;;4196230;28;20563;-34
2022/04/05 09:34:59;;;;;;;4.90;0.60;;;;;;;;;;4202147;28;20273;-35
2022/04/05 09:37:06;;;;;;;6.95;0.70;;;;;;;;;;4198181;28;20148;-35
2022/04/05 09:39:10;;;;;;;4.43;0.63;;;;;;;;;;4196909;28;20105;-32
2022/04/05 09:41:21;;;;;;;1.77;0.50;;;;;;;;;;4198141;28;20045;-32
2022/04/05 09:43:22;;;;;;;3.85;0.20;;;;;;;;;;4194035;28;21792;-34
2022/04/05 09:45:41;;;;;;;4.47;0.50;;;;;;;;;;4194455;28;20055;-34
2022/04/05 09:47:42;;;;;;;2.42;0.68;;;;;;;;;;4194232;28;20056;-34
2022/04/05 09:49:44;;;;;;;5.05;0.40;;;;;;;;;;4198576;28;20146;-33
2022/04/05 09:51:46;;;;;;;9.55;0.70;;;;;;;;;;4195581;28;20556;-33
2022/04/05 09:53:50;;;;;;;3.58;0.30;;;;;;;;;;4200479;28;20453;-33
2022/04/05 09:56:05;;;;;;;6.75;0.63;;;;;;;;;;4198351;28;20044;-35
2022/04/05 09:58:13;;;;;;;1.15;0.20;;;;;;;;;;4195983;28;20048;-33
2022/04/05 10:00:18;;;;;;;4.82;0.63;;;;;;;;;;4195083;28;20048;-33
2022/04/05 10:02:20;;;;;;;0.68;0.13;;;;;;;;;;4193598;28;20085;-34
2022/04/05 10:04:21;;;;;;;2.17;0.30;;;;;;;;;;4190232;28;20075;-34
2022/04/05 10:06:22;;;;;;;2.25;0.20;;;;;;;;;;4199669;28;20052;-34
2022/04/05 10:08:25;;;;;;;2.67;0.30;;;;;;;;;;4197083;28;20518;-35
2022/04/05 10:10:26;;;;;;;3.22;0.30;;;;;;;;;;4199150;28;20060;-35
2022/04/05 10:12:28;;;;;;;0.68;0.32;;;;;;;;;;4201050;28;20047;-33
2022/04/05 10:14:29;;;;;;;1.60;0.35;;;;;;;;;;4203635;28;20476;-33
2022/04/05 10:16:31;;;;;;;1.80;0.60;;;;;;;;;;4201487;28;20131;-33
2022/04/05 10:18:33;;;;;;;2.85;0.40;;;;;;;;;;4200575;28;20047;-35
2022/04/05 10:20:35;;;;;;;0.47;0.10;;;;;;;;;;4202666;28;20055;-33
2022/04/05 10:22:37;;;;;;;2.88;0.40;;;;;;;;;;4196337;28;20070;-36
2022/04/05 10:24:39;;;;;;;1.10;0.30;;;;;;;;;;4198897;28;20051;-34
2022/04/05 10:26:41;;;;;;;1.50;0.20;;;;;;;;;;4201495;28;20058;-33
2022/04/05 10:28:43;;;;;;;0.50;0.10;;;;;;;;;;4201923;28;20059;-34
2022/04/05 10:30:49;;;;;;;0.57;0.20;;;;;;;;;;4197915;28;20055;-34
2022/04/05 10:32:56;;;;;;;0.40;0.20;;;;;;;;;;4197687;28;20051;-34
2022/04/05 10:35:02;;;;;;;2.30;0.30;;;;;;;;;;4194750;28;20478;-35
2022/04/05 10:37:06;;;;;;;0.30;0.13;;;;;;;;;;4197693;28;20428;-35
2022/04/05 10:39:25;;;;;;;0.30;0.10;;;;;;;;;;4196863;28;20402;-34
2022/04/05 10:41:29;;;;;;;1.80;0.30;;;;;;;;;;4194032;28;20384;-37
2022/04/05 10:43:30;;;;;;;2.35;0.38;;;;;;;;;;4178489;28;20481;-35
2022/04/05 10:45:33;;;;;;;5.68;0.30;;;;;;;;;;4195126;28;20092;-35
2022/04/05 10:47:53;;;;;;;0.77;0.20;;;;;;;;;;4200525;28;20513;-34
2022/04/05 10:49:56;;;;;;;;;;;;;;;;;;4191875;28;20056;-34
2022/04/05 10:52:09;;;;;;;0.57;0.05;;;;;;;;;;4191251;28;19923;-34
2022/04/05 10:54:17;;;;;;;1.42;0.30;;;;;;;;;;4186748;28;20097;-34
2022/04/05 10:56:18;;;;;;;0.15;0.10;;;;;;;;;;4188734;28;20099;-33
2022/04/05 10:58:19;;;;;;;1.15;0.20;;;;;;;;;;4191254;28;20429;-35
2022/04/05 11:00:24;;;;;;;0.50;0.10;;;;;;;;;;4193745;28;20138;-34
2022/04/05 11:02:33;;;;;;;0.45;0.10;;;;;;;;;;4182483;28;20114;-35
2022/04/05 11:04:35;;;;;;;1.17;0.20;;;;;;;;;;4195204;28;20776;-34
2022/04/05 11:06:54;;;;;;;1.15;0.32;;;;;;;;;;4194182;28;20044;-34
2022/04/05 11:08:58;;;;;;;0.50;0.15;;;;;;;;;;4191721;28;20867;-35
2022/04/05 11:11:00;;;;;;;4.70;0.20;;;;;;;;;;4192336;28;20113;-34
2022/04/05 11:13:04;;;;;;;0.43;0.20;;;;;;;;;;4191949;28;20345;-35
2022/04/05 11:15:07;;;;;;;5.93;0.30;;;;;;;;;;4187859;28;20380;-40
2022/04/05 11:17:09;;;;;;;1.00;0.10;;;;;;;;;;4195778;28;20044;-42
2022/04/05 11:19:10;;;;;;;1.33;0.22;;;;;;;;;;4189535;28;20052;-43
2022/04/05 11:21:11;;;;;;;3.22;0.32;;;;;;;;;;4194278;28;20120;-39
2022/04/05 11:23:14;;;;;;;2.33;0.22;;;;;;;;;;4191981;28;20048;-42
2022/04/05 11:25:26;;;;;;;4.35;0.57;;;;;;;;;;4193179;28;20048;-40
2022/04/05 11:27:28;;;;;;;4.55;0.20;;;;;;;;;;4192807;28;20114;-41
2022/04/05 11:29:29;;;;;;;0.63;0.25;;;;;;;;;;4191621;28;20056;-41
2022/04/05 11:31:37;;;;;;;1.27;0.20;;;;;;;;;;4192266;28;20445;-40
2022/04/05 11:33:41;;;;;;;1.27;0.30;;;;;;;;;;4197904;28;20052;-39
2022/04/05 11:35:43;;;;;;;1.02;0.17;;;;;;;;;;4197547;28;20107;-39
2022/04/05 11:37:44;;;;;;;0.32;0.10;;;;;;;;;;4195639;28;20691;-42
2022/04/05 11:39:46;;;;;;;0.75;0.20;;;;;;;;;;4196673;28;20103;-43
2022/04/05 11:41:56;;;;;;;1.05;0.28;;;;;;;;;;4191926;28;20965;-42
2022/04/05 11:43:57;;;;;;;;;;;;;;;;;;4198253;28;20486;-41
2022/04/05 11:46:00;;;;;;;1.00;0.20;;;;;;;;;;4196566;28;19981;-40
2022/04/05 11:48:01;;;;;;;13.52;0.40;;;;;;;;;;4197735;28;20495;-42
2022/04/05 11:50:08;;;;;;;0.98;0.10;;;;;;;;;;4195164;28;20051;-42
2022/04/05 11:52:10;;;;;;;1.30;0.20;;;;;;;;;;4191445;28;20545;-42
2022/04/05 11:54:12;;;;;;;1.33;0.35;;;;;;;;;;4191774;28;20078;-41
2022/04/05 11:56:20;;;;;;;0.88;0.20;;;;;;;;;;4198240;28;20421;-42
2022/04/05 11:58:25;;;;;;;0.30;0.10;;;;;;;;;;4188717;28;20055;-41
2022/04/05 12:00:27;;;;;;;0.30;0.10;;;;;;;;;;4190537;28;20129;-42
2022/04/05 12:02:28;;;;;;;0.68;0.10;;;;;;;;;;4187143;28;20412;-41
2022/04/05 12:04:31;;;;;;;1.30;0.32;;;;;;;;;;4189928;28;20055;-42
2022/04/05 12:06:34;;;;;;;0.75;0.10;;;;;;;;;;4194423;28;20043;-41
2022/04/05 12:08:35;;;;;;;0.65;0.10;;;;;;;;;;4194596;28;20060;-42
2022/04/05 12:10:37;;;;;;;0.10;0.03;;;;;;;;;;4192403;28;20097;-41
2022/04/05 12:12:38;;;;;;;1.42;0.15;;;;;;;;;;4192876;28;20418;-42
2022/04/05 12:14:39;;;;;;;0.10;0.10;;;;;;;;;;4197213;28;20074;-41